Time;durP1;ratioP1;P1;durP2;ratioP2;P2;SDS_P1;SDS_P2;PMS_P1;PMS_P2;Temp;Humidity;BMP_temperature;BMP_pressure;BME280_temperature;BME280_humidity;BME280_pressure;Samples;Min_cycle;Max_cycle;Signal;HPM_P1;HPM_P2
2022/08/13 00:02:17;;;;;;;2.30;2.10;;;30.10;44.80;;;;;;4935566;28;20801;-73
2022/08/13 00:07:44;;;;;;;2.73;2.23;;;30.10;44.80;;;;;;4920425;29;20458;-72
2022/08/13 00:10:22;;;;;;;2.80;2.10;;;30.10;44.80;;;;;;4931801;29;20416;-72
2022/08/13 00:12:57;;;;;;;4.20;1.73;;;30.00;44.80;;;;;;4951197;29;21336;-73
2022/08/13 00:15:29;;;;;;;2.37;2.10;;;30.00;44.80;;;;;;4965986;28;20414;-73
2022/08/13 00:18:05;;;;;;;1.80;1.70;;;30.00;44.80;;;;;;4949977;29;20455;-74
2022/08/13 00:20:38;;;;;;;2.63;1.90;;;30.00;44.80;;;;;;4952808;28;20477;-72
2022/08/13 00:23:07;;;;;;;3.20;1.93;;;29.90;44.80;;;;;;4933164;29;20515;-73
2022/08/13 00:25:34;;;;;;;5.63;1.90;;;29.90;44.80;;;;;;4935284;29;20404;-73
2022/08/13 00:28:04;;;;;;;2.27;2.00;;;29.90;44.80;;;;;;4956318;29;20475;-72
2022/08/13 00:30:35;;;;;;;2.80;1.67;;;29.90;44.80;;;;;;4971790;28;20451;-73
2022/08/13 00:33:12;;;;;;;2.60;1.93;;;29.90;44.80;;;;;;4948996;29;20442;-73
2022/08/13 00:35:41;;;;;;;2.00;1.90;;;29.80;44.80;;;;;;4953933;29;20516;-73
2022/08/13 00:38:15;;;;;;;2.30;1.97;;;29.80;44.80;;;;;;4950790;28;20514;-73
2022/08/13 00:40:50;;;;;;;2.20;2.00;;;29.80;44.80;;;;;;4927326;29;20994;-73
2022/08/13 00:43:17;;;;;;;2.30;2.10;;;29.80;44.80;;;;;;4972537;28;21041;-73
2022/08/13 00:45:43;;;;;;;2.33;2.13;;;29.80;44.80;;;;;;4944443;28;20464;-73
2022/08/13 00:50:56;;;;;;;2.23;2.03;;;29.70;44.80;;;;;;4936876;29;21018;-73
2022/08/13 00:53:30;;;;;;;3.13;1.93;;;29.70;44.80;;;;;;4938075;29;20443;-73
2022/08/13 00:55:59;;;;;;;2.37;2.17;;;29.70;44.90;;;;;;4941241;29;20521;-73
2022/08/13 00:58:27;;;;;;;2.40;2.10;;;29.70;44.80;;;;;;4947513;29;20475;-73
2022/08/13 01:01:02;;;;;;;2.23;2.03;;;29.60;44.80;;;;;;4937512;29;20483;-73
2022/08/13 01:03:31;;;;;;;4.53;2.13;;;29.60;44.80;;;;;;4955239;28;20487;-73
2022/08/13 01:06:00;;;;;;;2.43;2.10;;;29.60;44.90;;;;;;4952512;29;20498;-72
2022/08/13 01:08:31;;;;;;;2.40;2.17;;;29.60;44.90;;;;;;4956800;28;20410;-73
2022/08/13 01:11:03;;;;;;;1.90;1.80;;;29.60;44.90;;;;;;4952179;29;20420;-73
2022/08/13 01:13:33;;;;;;;1.97;1.87;;;29.50;44.90;;;;;;4942385;29;20847;-73
2022/08/13 01:16:02;;;;;;;2.10;1.90;;;29.50;44.90;;;;;;4950780;29;20424;-72
2022/08/13 01:18:29;;;;;;;2.40;1.90;;;29.50;45.00;;;;;;4936584;29;20420;-73
2022/08/13 01:21:02;;;;;;;2.83;1.97;;;29.50;45.00;;;;;;4936531;29;20870;-73
2022/08/13 01:23:29;;;;;;;1.83;1.73;;;29.50;45.10;;;;;;4937667;29;20804;-73
2022/08/13 01:25:59;;;;;;;3.00;2.40;;;29.40;45.10;;;;;;4939790;29;20415;-73
2022/08/13 01:28:29;;;;;;;2.40;1.93;;;29.40;45.10;;;;;;4971633;28;20522;-73
2022/08/13 01:31:05;;;;;;;2.10;1.80;;;29.40;45.20;;;;;;4956016;28;20502;-72
2022/08/13 01:33:38;;;;;;;3.60;1.90;;;29.40;45.20;;;;;;4971569;28;20427;-73
2022/08/13 01:36:07;;;;;;;2.97;1.90;;;29.30;45.20;;;;;;4946671;29;20421;-73
2022/08/13 01:38:40;;;;;;;2.33;2.13;;;29.30;45.20;;;;;;4946947;29;20981;-72
2022/08/13 01:41:08;;;;;;;2.70;2.10;;;29.30;45.30;;;;;;4955101;29;20423;-73
2022/08/13 01:43:40;;;;;;;2.00;1.90;;;29.30;45.30;;;;;;4944567;29;20420;-73
2022/08/13 01:46:12;;;;;;;2.23;2.03;;;29.30;45.40;;;;;;4936032;29;20534;-73
2022/08/13 01:51:33;;;;;;;2.37;1.83;;;29.20;45.30;;;;;;4970807;28;20491;-73
2022/08/13 01:54:05;;;;;;;1.93;1.60;;;29.20;45.40;;;;;;4937850;29;20428;-73
2022/08/13 01:56:37;;;;;;;2.50;2.00;;;29.20;45.40;;;;;;4945017;29;20522;-73
2022/08/13 01:59:05;;;;;;;2.00;1.90;;;29.20;45.40;;;;;;4955634;28;20455;-73
2022/08/13 02:01:32;;;;;;;2.50;2.03;;;29.10;45.40;;;;;;4946445;29;20992;-73
2022/08/13 02:04:01;;;;;;;1.80;1.70;;;29.10;45.50;;;;;;4952617;29;20450;-73
2022/08/13 02:06:29;;;;;;;2.00;1.90;;;29.10;45.50;;;;;;4944516;28;20478;-73
2022/08/13 02:09:00;;;;;;;2.50;1.77;;;29.10;45.50;;;;;;4945142;29;20511;-73
2022/08/13 02:11:38;;;;;;;3.10;2.17;;;29.00;45.50;;;;;;4936755;29;20483;-73
2022/08/13 02:14:11;;;;;;;2.17;2.07;;;29.00;45.50;;;;;;4937147;29;20459;-73
2022/08/13 02:16:37;;;;;;;1.80;1.70;;;29.00;45.60;;;;;;4935670;29;20435;-73
2022/08/13 02:19:07;;;;;;;1.90;1.73;;;29.00;45.60;;;;;;4946966;29;20455;-73
2022/08/13 02:21:44;;;;;;;1.97;1.80;;;29.00;45.60;;;;;;4955649;28;20442;-73
2022/08/13 02:24:13;;;;;;;2.70;1.70;;;29.00;45.70;;;;;;4944126;29;20947;-73
2022/08/13 02:26:45;;;;;;;1.90;1.80;;;28.90;45.70;;;;;;4954548;29;20404;-73
2022/08/13 02:29:12;;;;;;;2.30;2.10;;;28.90;45.70;;;;;;4954968;28;20423;-73
2022/08/13 02:31:42;;;;;;;1.97;1.87;;;28.90;45.70;;;;;;4954554;29;20498;-72
2022/08/13 02:34:10;;;;;;;2.47;1.77;;;28.90;45.80;;;;;;4960433;28;20456;-73
2022/08/13 02:36:40;;;;;;;2.27;2.07;;;28.80;45.80;;;;;;4954387;29;20874;-73
2022/08/13 02:39:11;;;;;;;2.73;1.93;;;28.80;45.80;;;;;;4941466;29;20515;-72
2022/08/13 02:41:43;;;;;;;2.67;2.10;;;28.80;45.90;;;;;;4932732;29;20960;-73
2022/08/13 02:44:13;;;;;;;2.30;2.10;;;28.80;45.90;;;;;;4962404;28;20414;-73
2022/08/13 02:46:49;;;;;;;2.10;1.90;;;28.80;45.90;;;;;;4935043;29;20404;-73
2022/08/13 02:49:21;;;;;;;1.90;1.77;;;28.70;45.90;;;;;;4952440;28;20454;-73
2022/08/13 02:51:51;;;;;;;2.30;2.10;;;28.70;46.00;;;;;;4952640;28;20465;-73
2022/08/13 02:54:20;;;;;;;2.20;2.00;;;28.70;46.00;;;;;;4938136;29;20438;-73
2022/08/13 02:56:47;;;;;;;1.70;1.60;;;28.70;46.00;;;;;;4944400;28;20543;-73
2022/08/13 02:59:13;;;;;;;2.10;1.90;;;28.70;46.10;;;;;;4935479;29;20455;-73
2022/08/13 03:01:40;;;;;;;2.53;2.10;;;28.60;46.00;;;;;;4944743;29;20972;-73
2022/08/13 03:04:14;;;;;;;2.10;1.87;;;28.60;46.10;;;;;;4947214;29;21041;-73
2022/08/13 03:06:45;;;;;;;2.00;1.80;;;28.60;46.20;;;;;;4935776;29;20416;-73
2022/08/13 03:09:11;;;;;;;2.00;1.50;;;28.60;46.20;;;;;;4941630;29;20498;-73
2022/08/13 03:11:39;;;;;;;2.03;1.90;;;28.60;46.30;;;;;;4954753;28;20606;-72
2022/08/13 03:14:11;;;;;;;2.20;2.10;;;28.50;46.30;;;;;;4969177;28;20510;-73
2022/08/13 03:16:40;;;;;;;2.50;1.70;;;28.50;46.30;;;;;;4964050;28;20426;-73
2022/08/13 03:19:06;;;;;;;1.90;1.80;;;28.50;46.30;;;;;;4939451;29;20471;-73
2022/08/13 03:21:35;;;;;;;4.53;1.70;;;28.50;46.40;;;;;;4934410;29;20439;-72
2022/08/13 03:24:05;;;;;;;2.87;1.93;;;28.50;46.40;;;;;;4964338;28;20412;-73
2022/08/13 03:26:35;;;;;;;2.43;2.07;;;28.50;46.80;;;;;;4934657;29;20467;-73
2022/08/13 03:29:06;;;;;;;2.07;1.77;;;28.40;46.40;;;;;;4933658;29;20412;-73
2022/08/13 03:31:34;;;;;;;1.70;1.60;;;28.40;46.50;;;;;;4934282;29;20451;-73
2022/08/13 03:34:04;;;;;;;2.30;1.70;;;28.40;46.50;;;;;;4938636;29;20439;-73
2022/08/13 03:36:36;;;;;;;3.50;1.87;;;28.40;46.50;;;;;;4953545;28;20438;-72
2022/08/13 03:39:04;;;;;;;1.80;1.70;;;28.30;46.50;;;;;;4953290;28;20450;-73
2022/08/13 03:41:30;;;;;;;1.80;1.70;;;28.30;46.60;;;;;;4952984;29;20471;-72
2022/08/13 03:44:02;;;;;;;2.83;2.00;;;28.30;46.60;;;;;;4937263;29;20767;-73
2022/08/13 03:46:33;;;;;;;2.23;2.03;;;28.30;46.70;;;;;;4954303;28;20521;-73
2022/08/13 03:49:01;;;;;;;2.20;2.03;;;28.20;46.60;;;;;;4968559;28;20431;-73
2022/08/13 03:51:28;;;;;;;2.50;2.13;;;28.20;46.60;;;;;;4953611;28;20451;-73
2022/08/13 03:53:54;;;;;;;2.63;2.43;;;28.20;46.70;;;;;;4968166;28;20436;-73
2022/08/13 03:56:25;;;;;;;2.93;1.80;;;28.20;46.80;;;;;;4952738;29;20791;-73
2022/08/13 03:58:56;;;;;;;2.87;2.20;;;28.10;46.70;;;;;;4952134;28;20446;-73
2022/08/13 04:01:27;;;;;;;3.33;2.33;;;28.20;46.80;;;;;;4951620;29;20435;-73
2022/08/13 04:03:55;;;;;;;2.40;2.20;;;28.10;46.80;;;;;;4951681;28;20439;-73
2022/08/13 04:06:25;;;;;;;2.40;2.20;;;28.10;46.80;;;;;;4953341;28;20482;-72
2022/08/13 04:08:54;;;;;;;2.57;2.37;;;28.10;46.80;;;;;;4950148;28;20428;-73
2022/08/13 04:11:22;;;;;;;2.17;1.97;;;28.10;46.80;;;;;;4933512;29;20455;-73
2022/08/13 04:13:48;;;;;;;2.23;2.03;;;28.00;46.80;;;;;;4937628;29;20435;-73
2022/08/13 04:16:23;;;;;;;3.70;2.50;;;28.00;46.80;;;;;;4953852;28;20901;-73
2022/08/13 04:18:50;;;;;;;2.90;2.70;;;28.00;46.90;;;;;;4935392;29;20450;-72
2022/08/13 04:21:19;;;;;;;2.23;2.03;;;28.00;46.90;;;;;;4934373;29;20412;-72
2022/08/13 04:23:46;;;;;;;2.60;2.40;;;27.90;46.80;;;;;;4934354;29;20455;-73
2022/08/13 04:26:17;;;;;;;6.23;1.93;;;27.90;46.90;;;;;;4934718;29;20400;-71
2022/08/13 04:28:45;;;;;;;2.20;2.10;;;27.90;46.90;;;;;;4917630;29;20431;-72
2022/08/13 04:31:15;;;;;;;2.70;2.03;;;27.90;46.90;;;;;;4942510;29;20450;-73
2022/08/13 04:33:42;;;;;;;2.53;1.90;;;27.90;47.00;;;;;;4951844;28;20450;-73
2022/08/13 04:36:08;;;;;;;2.20;2.00;;;27.90;47.00;;;;;;4936834;29;20457;-73
2022/08/13 04:38:35;;;;;;;2.50;2.30;;;27.90;47.00;;;;;;4954886;28;20526;-73
2022/08/13 04:41:01;;;;;;;2.37;2.17;;;27.80;47.00;;;;;;4933525;29;20852;-73
2022/08/13 04:43:30;;;;;;;2.30;2.10;;;27.80;47.00;;;;;;4918128;29;20440;-72
2022/08/13 04:46:00;;;;;;;2.17;1.63;;;27.80;47.10;;;;;;4951337;29;20457;-73
2022/08/13 04:48:32;;;;;;;2.40;2.00;;;27.80;47.10;;;;;;4950311;29;20550;-73
2022/08/13 04:50:58;;;;;;;2.10;1.90;;;27.80;47.10;;;;;;4953722;28;20414;-73
2022/08/13 04:53:27;;;;;;;3.80;2.30;;;27.70;47.10;;;;;;4940146;29;20530;-73
2022/08/13 04:55:58;;;;;;;2.00;1.90;;;27.70;47.20;;;;;;4933375;29;20476;-71
2022/08/13 04:58:32;;;;;;;2.20;2.00;;;27.70;47.20;;;;;;4946643;29;20447;-72
2022/08/13 05:01:09;;;;;;;2.50;2.00;;;27.70;47.20;;;;;;4951661;28;20489;-71
2022/08/13 05:03:45;;;;;;;2.27;2.07;;;27.70;47.20;;;;;;5024825;23;20477;-72
2022/08/13 05:06:19;;;;;;;2.50;2.30;;;27.60;47.20;;;;;;4968795;28;20430;-72
2022/08/13 05:08:51;;;;;;;2.03;1.93;;;27.60;47.30;;;;;;4953203;29;20802;-70
2022/08/13 05:11:22;;;;;;;2.10;2.00;;;27.60;47.40;;;;;;4969142;28;20388;-70
2022/08/13 05:13:50;;;;;;;3.13;2.20;;;27.60;47.40;;;;;;4940934;29;20955;-69
2022/08/13 05:16:19;;;;;;;2.50;1.90;;;27.60;47.40;;;;;;4956966;29;20427;-69
2022/08/13 05:18:50;;;;;;;2.07;1.87;;;27.50;47.40;;;;;;4957583;28;20502;-69
2022/08/13 05:21:22;;;;;;;3.50;2.10;;;27.50;47.50;;;;;;4957287;28;20454;-69
2022/08/13 05:23:57;;;;;;;2.13;1.93;;;27.50;47.50;;;;;;4956006;29;20439;-69
2022/08/13 05:26:28;;;;;;;2.67;2.30;;;27.50;47.50;;;;;;4956945;29;20434;-69
2022/08/13 05:28:58;;;;;;;2.43;1.83;;;27.50;47.60;;;;;;4972149;28;20518;-69
2022/08/13 05:31:26;;;;;;;2.10;1.90;;;27.40;47.60;;;;;;4962436;28;20418;-69
2022/08/13 05:33:57;;;;;;;2.40;2.20;;;27.40;47.60;;;;;;4975152;28;20772;-69
2022/08/13 05:36:28;;;;;;;2.30;2.10;;;27.50;47.80;;;;;;4976209;28;20490;-69
2022/08/13 05:38:59;;;;;;;2.00;1.90;;;27.40;47.80;;;;;;4974897;28;20458;-69
2022/08/13 05:41:26;;;;;;;3.23;1.90;;;27.40;47.80;;;;;;4975121;28;20924;-69
2022/08/13 05:43:52;;;;;;;2.87;2.53;;;27.30;47.80;;;;;;4974493;28;20406;-69
2022/08/13 05:46:19;;;;;;;2.20;2.00;;;27.30;47.80;;;;;;4974937;28;20403;-69
2022/08/13 05:48:56;;;;;;;2.80;2.13;;;27.30;47.90;;;;;;4976084;28;20966;-71
2022/08/13 05:51:28;;;;;;;2.53;2.10;;;27.30;47.90;;;;;;4976177;28;21056;-71
2022/08/13 05:53:59;;;;;;;3.53;2.43;;;27.30;48.00;;;;;;4975734;28;20410;-71
2022/08/13 05:56:38;;;;;;;2.40;2.00;;;27.30;48.10;;;;;;4990892;28;20411;-71
2022/08/13 05:59:05;;;;;;;3.37;1.80;;;27.30;48.20;;;;;;4975927;28;20915;-71
2022/08/13 06:04:18;;;;;;;2.20;2.00;;;27.30;48.20;;;;;;4975722;28;20907;-71
2022/08/13 06:06:47;;;;;;;2.50;2.30;;;27.30;48.30;;;;;;4958643;28;20480;-70
2022/08/13 06:09:13;;;;;;;2.37;2.27;;;27.20;48.30;;;;;;4972714;28;20426;-71
2022/08/13 06:11:41;;;;;;;2.60;2.40;;;27.20;48.30;;;;;;4958249;28;20438;-71
2022/08/13 06:14:09;;;;;;;2.80;2.33;;;27.20;48.40;;;;;;4974477;28;20414;-69
2022/08/13 06:16:37;;;;;;;2.70;2.23;;;27.20;48.50;;;;;;4975416;28;20761;-71
2022/08/13 06:19:10;;;;;;;2.03;1.70;;;27.20;48.40;;;;;;4974306;28;20820;-71
2022/08/13 06:21:37;;;;;;;2.70;2.50;;;27.20;48.50;;;;;;4974280;28;20446;-71
2022/08/13 06:24:05;;;;;;;3.07;2.77;;;27.20;48.50;;;;;;4974298;28;20453;-71
2022/08/13 06:26:31;;;;;;;2.50;2.30;;;27.20;48.60;;;;;;4975321;28;20407;-70
2022/08/13 06:29:01;;;;;;;2.60;2.40;;;27.20;48.60;;;;;;4973366;28;20927;-71
2022/08/13 06:31:32;;;;;;;2.57;2.30;;;27.10;48.50;;;;;;4975048;28;20489;-71
2022/08/13 06:34:00;;;;;;;4.17;2.70;;;27.10;48.60;;;;;;4975215;28;20415;-71
2022/08/13 06:36:29;;;;;;;2.27;1.90;;;27.10;48.60;;;;;;4974208;28;20481;-71
2022/08/13 06:39:02;;;;;;;2.60;2.40;;;27.10;48.60;;;;;;4963332;28;20454;-72
2022/08/13 06:41:34;;;;;;;2.33;2.17;;;27.10;48.70;;;;;;4955564;28;20474;-71
2022/08/13 06:44:01;;;;;;;1.90;1.80;;;27.10;48.70;;;;;;4954353;29;20423;-71
2022/08/13 06:46:28;;;;;;;2.33;2.00;;;27.10;48.70;;;;;;4954591;29;20416;-71
2022/08/13 06:48:57;;;;;;;2.70;2.10;;;27.10;48.70;;;;;;4955000;29;20412;-71
2022/08/13 06:51:29;;;;;;;2.60;2.40;;;27.10;48.70;;;;;;4938214;29;20403;-70
2022/08/13 06:53:55;;;;;;;2.77;2.57;;;27.10;48.80;;;;;;4955363;29;20538;-72
2022/08/13 06:56:24;;;;;;;2.00;1.90;;;27.10;48.70;;;;;;4954263;29;20439;-72
2022/08/13 06:58:52;;;;;;;1.80;1.70;;;27.10;48.80;;;;;;4955005;29;20399;-72
2022/08/13 07:01:37;;;;;;;2.87;2.17;;;27.10;48.80;;;;;;4954347;29;20495;-71
2022/08/13 07:04:03;;;;;;;2.50;2.30;;;27.10;48.80;;;;;;4955348;28;20522;-72
2022/08/13 07:06:31;;;;;;;2.57;2.37;;;27.10;48.80;;;;;;4954239;29;20510;-70
2022/08/13 07:09:02;;;;;;;2.20;1.93;;;27.10;48.80;;;;;;4952421;28;20427;-71
2022/08/13 07:11:32;;;;;;;2.13;1.90;;;27.10;48.80;;;;;;4953999;29;20960;-71
2022/08/13 07:14:02;;;;;;;2.40;2.20;;;27.10;48.80;;;;;;4954028;29;20549;-71
2022/08/13 07:16:31;;;;;;;2.30;2.20;;;27.10;48.80;;;;;;4954122;29;20454;-71
2022/08/13 07:18:59;;;;;;;2.63;2.30;;;27.10;48.70;;;;;;4953764;29;20470;-71
2022/08/13 07:21:27;;;;;;;2.77;2.40;;;27.10;48.70;;;;;;4953979;29;20419;-71
2022/08/13 07:23:56;;;;;;;2.43;2.23;;;27.10;48.70;;;;;;4953546;29;20411;-71
2022/08/13 07:26:29;;;;;;;3.03;2.10;;;27.10;48.70;;;;;;4953436;29;20419;-71
2022/08/13 07:28:55;;;;;;;2.73;2.10;;;27.10;48.70;;;;;;4937750;29;20841;-71
2022/08/13 07:31:27;;;;;;;4.50;2.50;;;27.10;48.70;;;;;;4937764;29;20403;-70
2022/08/13 07:33:59;;;;;;;2.93;2.10;;;27.10;48.70;;;;;;4937582;28;20522;-71
2022/08/13 07:36:29;;;;;;;2.43;2.23;;;27.20;48.80;;;;;;4954794;28;20415;-71
2022/08/13 07:38:57;;;;;;;2.40;2.20;;;27.20;48.90;;;;;;4937033;29;20466;-71
2022/08/13 07:41:27;;;;;;;2.43;2.33;;;27.20;48.90;;;;;;4937502;29;20443;-73
2022/08/13 07:43:59;;;;;;;2.53;2.30;;;27.20;48.90;;;;;;4952308;29;20843;-71
2022/08/13 07:46:27;;;;;;;2.20;2.10;;;27.20;48.90;;;;;;4936595;29;20447;-70
2022/08/13 07:48:59;;;;;;;2.60;2.40;;;27.20;49.00;;;;;;4953126;29;20434;-71
2022/08/13 07:51:28;;;;;;;2.47;2.27;;;27.20;49.00;;;;;;4954616;28;20901;-71
2022/08/13 07:53:55;;;;;;;2.20;2.00;;;27.20;49.10;;;;;;4953190;28;20400;-70
2022/08/13 07:56:28;;;;;;;2.23;2.13;;;27.20;49.10;;;;;;4953550;29;20427;-71
2022/08/13 07:59:00;;;;;;;4.23;2.63;;;27.20;49.00;;;;;;4936047;29;20490;-71
2022/08/13 08:01:29;;;;;;;2.40;2.20;;;27.20;49.00;;;;;;4953970;28;20403;-71
2022/08/13 08:03:58;;;;;;;2.60;2.40;;;27.20;49.10;;;;;;4952330;29;20534;-71
2022/08/13 08:06:25;;;;;;;2.73;2.53;;;27.20;49.00;;;;;;4952168;29;20415;-71
2022/08/13 08:08:57;;;;;;;5.73;2.37;;;27.30;49.00;;;;;;4951269;29;20454;-71
2022/08/13 08:14:11;;;;;;;4.30;2.20;;;27.30;49.00;;;;;;4954529;29;20467;-72
2022/08/13 08:16:44;;;;;;;3.50;2.37;;;27.30;49.00;;;;;;4937511;29;20502;-71
2022/08/13 08:19:14;;;;;;;4.27;2.70;;;27.30;48.90;;;;;;4952107;29;20797;-71
2022/08/13 08:21:41;;;;;;;3.50;3.20;;;27.30;48.90;;;;;;4953077;28;20478;-70
2022/08/13 08:24:11;;;;;;;2.70;2.50;;;27.30;48.90;;;;;;4951806;29;20518;-71
2022/08/13 08:26:46;;;;;;;2.23;2.03;;;27.30;48.90;;;;;;4952907;28;20395;-71
2022/08/13 08:29:16;;;;;;;2.60;2.40;;;27.30;48.90;;;;;;4953040;29;20521;-71
2022/08/13 08:31:44;;;;;;;2.60;2.40;;;27.30;48.90;;;;;;4953058;29;20482;-71
2022/08/13 08:34:11;;;;;;;2.27;2.17;;;27.30;48.90;;;;;;4953079;29;20446;-71
2022/08/13 08:37:08;;;;;;;2.60;2.40;;;27.40;48.90;;;;;;4935472;29;20434;-71
2022/08/13 08:42:36;;;;;;;3.00;2.70;;;27.40;48.80;;;;;;4952000;29;20506;-70
2022/08/13 08:45:09;;;;;;;2.60;2.40;;;27.40;48.80;;;;;;4952965;28;20395;-71
2022/08/13 08:47:37;;;;;;;2.77;2.40;;;27.40;48.80;;;;;;4955315;28;20399;-69
2022/08/13 08:50:10;;;;;;;2.60;2.40;;;27.40;48.80;;;;;;4956933;29;20486;-70
2022/08/13 08:55:24;;;;;;;2.27;2.17;;;27.50;48.80;;;;;;4957895;29;20424;-70
2022/08/13 08:57:53;;;;;;;2.43;2.23;;;27.50;48.80;;;;;;4956567;29;20457;-70
2022/08/13 09:00:23;;;;;;;2.13;2.03;;;27.60;48.80;;;;;;4955953;29;20910;-69
2022/08/13 09:02:51;;;;;;;2.40;2.30;;;27.60;48.80;;;;;;4940268;29;20469;-70
2022/08/13 09:05:21;;;;;;;2.70;2.50;;;27.60;48.70;;;;;;4955104;29;21012;-70
2022/08/13 09:07:48;;;;;;;2.73;2.47;;;27.60;48.70;;;;;;4957517;29;20435;-70
2022/08/13 09:10:20;;;;;;;2.73;2.53;;;27.70;48.70;;;;;;4958177;28;20453;-70
2022/08/13 09:12:48;;;;;;;2.53;2.33;;;27.70;49.20;;;;;;4958056;29;20474;-70
2022/08/13 09:15:17;;;;;;;2.43;2.23;;;27.80;48.70;;;;;;4955741;29;20414;-70
2022/08/13 09:17:45;;;;;;;2.90;2.60;;;27.80;48.70;;;;;;4956870;29;20407;-70
2022/08/13 09:20:18;;;;;;;2.57;2.00;;;27.80;48.60;;;;;;4941056;29;21004;-70
2022/08/13 09:22:58;;;;;;;2.43;2.30;;;27.80;48.50;;;;;;4957831;28;20446;-70
2022/08/13 09:25:27;;;;;;;2.53;2.20;;;27.80;48.40;;;;;;4940915;29;20414;-71
2022/08/13 09:27:54;;;;;;;2.63;2.43;;;27.90;48.30;;;;;;4940889;29;20454;-71
2022/08/13 09:30:23;;;;;;;3.10;2.90;;;27.90;48.40;;;;;;4956854;29;20411;-71
2022/08/13 09:32:56;;;;;;;4.43;2.50;;;28.00;48.40;;;;;;4956252;29;20455;-74
2022/08/13 09:35:34;;;;;;;2.53;2.33;;;28.00;48.40;;;;;;4956429;29;20831;-72
2022/08/13 09:38:06;;;;;;;2.20;2.10;;;28.00;48.50;;;;;;4956737;29;20754;-71
2022/08/13 09:40:39;;;;;;;3.10;2.13;;;28.00;48.40;;;;;;4956548;29;20470;-72
2022/08/13 09:43:17;;;;;;;2.47;2.27;;;28.10;48.50;;;;;;4956372;29;20525;-71
2022/08/13 09:45:48;;;;;;;2.77;2.50;;;28.10;48.40;;;;;;4956759;29;20411;-69
2022/08/13 09:48:15;;;;;;;2.53;2.33;;;28.20;48.40;;;;;;4956414;29;20410;-73
2022/08/13 09:50:47;;;;;;;2.97;2.67;;;28.20;48.40;;;;;;4955539;29;20403;-70
2022/08/13 09:53:15;;;;;;;3.70;2.40;;;28.20;48.30;;;;;;4956526;28;20457;-70
2022/08/13 09:55:41;;;;;;;2.57;2.37;;;28.30;48.30;;;;;;4939967;29;20448;-70
2022/08/13 09:58:08;;;;;;;2.70;2.20;;;28.30;48.30;;;;;;4956682;28;20489;-71
2022/08/13 10:00:37;;;;;;;2.53;2.33;;;28.30;48.20;;;;;;4955377;29;20745;-70
2022/08/13 10:03:07;;;;;;;2.37;2.23;;;28.40;48.30;;;;;;4956128;28;20470;-72
2022/08/13 10:05:38;;;;;;;2.40;2.20;;;28.50;48.20;;;;;;4940154;29;20447;-71
2022/08/13 10:08:20;;;;;;;3.23;2.93;;;28.50;48.20;;;;;;4939849;29;20431;-69
2022/08/13 10:10:49;;;;;;;3.63;2.47;;;28.50;48.10;;;;;;4954230;29;20963;-70
2022/08/13 10:13:21;;;;;;;2.60;2.40;;;28.60;48.20;;;;;;4937745;29;20462;-70
2022/08/13 10:15:49;;;;;;;2.43;2.23;;;28.60;48.00;;;;;;4953705;29;20426;-71
2022/08/13 10:18:16;;;;;;;2.60;2.40;;;28.60;48.00;;;;;;4955008;29;20811;-72
2022/08/13 10:20:45;;;;;;;2.80;2.60;;;28.70;47.90;;;;;;4939765;29;20541;-69
2022/08/13 10:23:13;;;;;;;2.67;2.47;;;28.70;47.80;;;;;;4938180;29;20439;-71
2022/08/13 10:25:44;;;;;;;2.57;2.37;;;28.80;47.80;;;;;;4955050;29;20510;-68
2022/08/13 10:28:18;;;;;;;2.67;2.47;;;28.80;47.70;;;;;;4955141;29;20431;-70
2022/08/13 10:30:46;;;;;;;3.10;2.70;;;28.90;47.70;;;;;;4956574;28;20451;-69
2022/08/13 10:33:18;;;;;;;3.10;2.37;;;28.90;47.60;;;;;;4956880;28;20443;-69
2022/08/13 10:35:51;;;;;;;2.93;2.47;;;28.90;47.50;;;;;;4940202;29;20509;-69
2022/08/13 10:38:26;;;;;;;2.93;2.67;;;29.00;47.50;;;;;;4955493;29;20446;-70
2022/08/13 10:40:54;;;;;;;2.50;2.20;;;29.00;47.40;;;;;;4956708;28;20550;-69
2022/08/13 10:43:23;;;;;;;2.60;2.40;;;29.00;47.40;;;;;;4956674;28;20803;-69
2022/08/13 10:45:56;;;;;;;2.87;2.20;;;29.10;47.40;;;;;;4955556;29;20431;-70
2022/08/13 10:48:25;;;;;;;2.60;2.40;;;29.10;47.30;;;;;;4955749;29;20399;-69
2022/08/13 10:50:53;;;;;;;2.53;2.43;;;29.20;47.30;;;;;;4955446;29;20482;-70
2022/08/13 10:56:13;;;;;;;2.43;2.30;;;29.20;47.10;;;;;;4956653;28;20443;-69
2022/08/13 10:58:44;;;;;;;2.83;2.63;;;29.30;47.10;;;;;;4939713;29;20435;-70
2022/08/13 11:01:12;;;;;;;2.80;2.60;;;29.30;47.00;;;;;;4955192;29;20443;-69
2022/08/13 11:03:44;;;;;;;2.90;2.70;;;29.30;46.90;;;;;;4956177;28;20454;-70
2022/08/13 11:06:15;;;;;;;3.20;2.90;;;29.40;46.90;;;;;;4955176;29;20419;-69
2022/08/13 11:08:42;;;;;;;2.53;2.37;;;29.40;46.80;;;;;;4954726;28;20454;-69
2022/08/13 11:11:09;;;;;;;2.73;2.63;;;29.40;46.80;;;;;;4938623;29;20897;-69
2022/08/13 11:13:39;;;;;;;2.50;2.30;;;29.50;46.80;;;;;;4955289;29;20844;-69
2022/08/13 11:16:56;;;;;;;4.03;2.70;;;29.50;46.70;;;;;;4955075;29;20458;-69
2022/08/13 11:18:54;;;;;;;2.87;2.67;;;29.50;46.70;;;;;;4955923;29;20518;-69
2022/08/13 11:21:25;;;;;;;3.03;2.83;;;29.60;46.70;;;;;;4954745;29;20478;-69
2022/08/13 11:23:52;;;;;;;2.70;2.60;;;29.60;46.60;;;;;;4956429;28;20411;-69
2022/08/13 11:26:21;;;;;;;2.83;2.63;;;29.70;46.60;;;;;;4955001;29;20403;-69
2022/08/13 11:28:49;;;;;;;3.17;2.87;;;29.70;46.60;;;;;;4955158;29;20548;-69
2022/08/13 11:31:17;;;;;;;2.93;2.73;;;29.70;46.50;;;;;;4939275;29;20431;-70
2022/08/13 11:33:46;;;;;;;2.70;2.60;;;29.80;46.40;;;;;;4954898;29;20783;-69
2022/08/13 11:36:11;;;;;;;2.77;2.60;;;29.80;46.40;;;;;;4956138;28;20467;-69
2022/08/13 11:38:42;;;;;;;2.87;2.67;;;29.80;46.40;;;;;;4955332;29;20403;-70
2022/08/13 11:41:11;;;;;;;2.93;2.70;;;29.90;46.40;;;;;;4938730;29;20485;-69
2022/08/13 11:43:39;;;;;;;3.30;3.10;;;29.90;46.30;;;;;;4954821;29;20784;-70
2022/08/13 11:46:07;;;;;;;3.00;2.80;;;29.90;46.30;;;;;;4954940;29;20407;-69
2022/08/13 11:48:34;;;;;;;2.80;2.70;;;30.00;46.30;;;;;;4955903;29;20424;-70
2022/08/13 11:51:05;;;;;;;2.93;2.73;;;30.00;46.20;;;;;;4956063;28;20427;-70
2022/08/13 11:53:34;;;;;;;2.63;2.50;;;30.00;46.10;;;;;;4954695;29;20502;-69
2022/08/13 11:56:02;;;;;;;3.10;2.87;;;30.10;46.10;;;;;;4955938;28;20422;-69
2022/08/13 11:58:32;;;;;;;3.10;2.90;;;30.10;46.10;;;;;;4954961;29;20470;-69
2022/08/13 12:00:59;;;;;;;2.60;2.40;;;30.10;46.10;;;;;;4954742;29;20442;-69
2022/08/13 12:03:25;;;;;;;3.37;3.17;;;30.20;46.00;;;;;;4954663;29;20442;-69
2022/08/13 12:05:53;;;;;;;2.90;2.60;;;30.20;46.00;;;;;;4955915;28;20427;-70
2022/08/13 12:08:20;;;;;;;2.60;2.40;;;30.20;46.00;;;;;;4956270;28;20431;-69
2022/08/13 12:10:49;;;;;;;3.50;3.20;;;30.20;46.00;;;;;;4954664;29;20215;-69
2022/08/13 12:13:35;;;;;;;2.67;2.57;;;30.30;46.00;;;;;;4914690;29;20433;-70
2022/08/13 12:16:04;;;;;;;2.87;2.67;;;30.30;46.00;;;;;;4915462;29;20436;-69
2022/08/13 12:18:32;;;;;;;3.27;2.80;;;30.40;46.00;;;;;;4899346;29;20821;-70
2022/08/13 12:21:03;;;;;;;3.33;3.03;;;30.40;45.80;;;;;;4916325;29;20478;-70
2022/08/13 12:23:31;;;;;;;3.00;2.70;;;30.40;45.80;;;;;;4903990;29;20567;-70
2022/08/13 12:26:01;;;;;;;3.17;2.97;;;30.40;45.90;;;;;;4919452;29;20466;-70
2022/08/13 12:28:28;;;;;;;2.93;2.73;;;30.50;45.80;;;;;;4919305;29;20471;-70
2022/08/13 12:31:00;;;;;;;2.90;2.70;;;30.50;45.80;;;;;;4919492;29;20518;-70
2022/08/13 12:33:29;;;;;;;2.90;2.70;;;30.50;45.70;;;;;;4919339;29;21001;-69
2022/08/13 12:35:59;;;;;;;3.00;2.80;;;30.60;45.70;;;;;;4919258;29;20849;-70
2022/08/13 12:38:28;;;;;;;3.60;3.40;;;30.60;45.50;;;;;;4919237;29;20576;-69
2022/08/13 12:40:55;;;;;;;2.60;2.50;;;30.70;45.60;;;;;;4919404;29;20496;-69
2022/08/13 12:43:26;;;;;;;2.80;2.60;;;30.60;45.50;;;;;;4888095;29;20459;-69
2022/08/13 12:45:52;;;;;;;3.70;3.03;;;30.70;45.60;;;;;;4919070;29;20421;-69
2022/08/13 12:48:18;;;;;;;2.93;2.70;;;30.70;45.30;;;;;;4919176;29;20798;-69
2022/08/13 12:50:47;;;;;;;3.00;2.77;;;30.70;45.10;;;;;;4930959;29;20283;-69
2022/08/13 12:53:16;;;;;;;2.80;2.60;;;30.80;45.20;;;;;;4958903;28;20508;-69
2022/08/13 12:55:46;;;;;;;3.23;3.00;;;30.80;45.20;;;;;;4959383;28;20477;-70
2022/08/13 12:58:20;;;;;;;3.07;2.87;;;30.80;45.10;;;;;;4958099;29;20431;-69
2022/08/13 13:00:53;;;;;;;2.40;2.30;;;30.80;44.80;;;;;;4958016;29;20486;-70
2022/08/13 13:03:23;;;;;;;3.03;2.83;;;30.90;44.70;;;;;;4941860;29;20473;-69
2022/08/13 13:05:55;;;;;;;3.10;2.87;;;30.90;44.50;;;;;;4959134;28;20407;-69
2022/08/13 13:08:30;;;;;;;2.80;2.60;;;30.90;44.50;;;;;;4957944;29;20426;-70
2022/08/13 13:11:04;;;;;;;2.60;2.50;;;31.00;44.60;;;;;;4957633;29;20395;-69
2022/08/13 13:13:35;;;;;;;3.00;2.80;;;31.00;44.60;;;;;;5023444;23;20936;-75
2022/08/13 13:16:04;;;;;;;3.13;2.90;;;31.10;44.60;;;;;;4943817;28;20441;-75
2022/08/13 13:18:33;;;;;;;2.97;2.77;;;31.10;44.60;;;;;;4975554;28;20418;-75
2022/08/13 13:21:00;;;;;;;3.17;2.93;;;31.10;44.40;;;;;;4990207;28;20450;-75
2022/08/13 13:23:29;;;;;;;2.83;2.67;;;31.20;44.40;;;;;;4970154;28;20483;-75
2022/08/13 13:25:56;;;;;;;2.80;2.43;;;31.20;44.30;;;;;;4958815;28;20457;-76